sensor_id;sensor_type;location;lat;lon;timestamp;P1;durP1;ratioP1;P2;durP2;ratioP2
20458;SDS011;10388;52.314;7.938;2022-08-03T03:30:35;4.50;;;3.10;;
20458;SDS011;10388;52.314;7.938;2022-08-03T03:33:06;7.03;;;3.40;;
20458;SDS011;10388;52.314;7.938;2022-08-03T03:35:36;3.97;;;3.30;;
20458;SDS011;10388;52.314;7.938;2022-08-03T03:38:10;5.37;;;3.43;;
20458;SDS011;10388;52.314;7.938;2022-08-03T03:40:41;4.83;;;3.57;;
20458;SDS011;10388;52.314;7.938;2022-08-03T03:43:12;6.53;;;3.50;;
20458;SDS011;10388;52.314;7.938;2022-08-03T03:45:42;6.60;;;3.93;;
20458;SDS011;10388;52.314;7.938;2022-08-03T03:48:15;3.70;;;3.30;;
20458;SDS011;10388;52.314;7.938;2022-08-03T03:50:48;5.13;;;3.20;;
20458;SDS011;10388;52.314;7.938;2022-08-03T03:53:19;4.40;;;3.67;;
20458;SDS011;10388;52.314;7.938;2022-08-03T03:55:50;5.33;;;4.10;;
20458;SDS011;10388;52.314;7.938;2022-08-03T03:58:21;5.97;;;3.63;;
20458;SDS011;10388;52.314;7.938;2022-08-03T04:00:52;4.70;;;3.20;;
20458;SDS011;10388;52.314;7.938;2022-08-03T04:03:23;5.13;;;3.37;;
20458;SDS011;10388;52.314;7.938;2022-08-03T04:05:53;5.23;;;3.43;;
20458;SDS011;10388;52.314;7.938;2022-08-03T04:08:42;4.77;;;3.67;;
20458;SDS011;10388;52.314;7.938;2022-08-03T04:11:39;5.27;;;3.83;;
20458;SDS011;10388;52.314;7.938;2022-08-03T04:14:24;8.77;;;3.80;;
20458;SDS011;10388;52.314;7.938;2022-08-03T04:16:58;6.37;;;3.40;;
20458;SDS011;10388;52.314;7.938;2022-08-03T04:19:33;13.03;;;5.23;;
20458;SDS011;10388;52.314;7.938;2022-08-03T04:22:08;5.93;;;3.63;;
20458;SDS011;10388;52.314;7.938;2022-08-03T04:24:42;5.07;;;3.50;;
20458;SDS011;10388;52.314;7.938;2022-08-03T04:27:18;5.37;;;3.30;;
20458;SDS011;10388;52.314;7.938;2022-08-03T04:29:52;6.00;;;4.17;;
20458;SDS011;10388;52.314;7.938;2022-08-03T04:32:25;5.27;;;4.30;;
20458;SDS011;10388;52.314;7.938;2022-08-03T04:34:57;7.97;;;3.80;;
20458;SDS011;10388;52.314;7.938;2022-08-03T04:37:38;4.00;;;3.40;;
20458;SDS011;10388;52.314;7.938;2022-08-03T04:40:13;4.83;;;3.80;;
20458;SDS011;10388;52.314;7.938;2022-08-03T04:42:47;3.90;;;3.53;;
20458;SDS011;10388;52.314;7.938;2022-08-03T04:45:19;4.10;;;3.57;;
20458;SDS011;10388;52.314;7.938;2022-08-03T04:47:51;6.87;;;3.97;;
20458;SDS011;10388;52.314;7.938;2022-08-03T04:50:22;4.50;;;3.63;;
20458;SDS011;10388;52.314;7.938;2022-08-03T04:52:54;6.57;;;3.93;;
20458;SDS011;10388;52.314;7.938;2022-08-03T04:55:25;5.90;;;3.70;;
20458;SDS011;10388;52.314;7.938;2022-08-03T04:57:57;5.27;;;3.83;;
20458;SDS011;10388;52.314;7.938;2022-08-03T05:00:28;4.20;;;3.63;;
20458;SDS011;10388;52.314;7.938;2022-08-03T05:02:59;5.63;;;4.13;;
20458;SDS011;10388;52.314;7.938;2022-08-03T05:05:29;7.13;;;4.07;;
20458;SDS011;10388;52.314;7.938;2022-08-03T05:08:00;5.73;;;4.03;;
20458;SDS011;10388;52.314;7.938;2022-08-03T05:10:30;5.73;;;4.53;;
20458;SDS011;10388;52.314;7.938;2022-08-03T05:13:01;5.13;;;4.00;;
20458;SDS011;10388;52.314;7.938;2022-08-03T05:15:31;6.07;;;4.40;;
20458;SDS011;10388;52.314;7.938;2022-08-03T05:18:02;6.50;;;4.70;;
20458;SDS011;10388;52.314;7.938;2022-08-03T05:20:33;7.80;;;4.47;;
20458;SDS011;10388;52.314;7.938;2022-08-03T05:23:03;6.33;;;4.70;;
20458;SDS011;10388;52.314;7.938;2022-08-03T05:25:34;5.73;;;4.77;;
20458;SDS011;10388;52.314;7.938;2022-08-03T05:28:04;7.07;;;4.60;;
20458;SDS011;10388;52.314;7.938;2022-08-03T05:30:35;6.50;;;5.17;;
20458;SDS011;10388;52.314;7.938;2022-08-03T05:33:07;6.53;;;4.87;;
20458;SDS011;10388;52.314;7.938;2022-08-03T05:35:37;9.63;;;6.23;;
20458;SDS011;10388;52.314;7.938;2022-08-03T05:38:08;5.90;;;4.80;;
20458;SDS011;10388;52.314;7.938;2022-08-03T05:40:38;5.73;;;4.50;;
20458;SDS011;10388;52.314;7.938;2022-08-03T05:43:09;6.73;;;4.70;;
20458;SDS011;10388;52.314;7.938;2022-08-03T05:45:39;8.37;;;5.60;;
20458;SDS011;10388;52.314;7.938;2022-08-03T05:48:10;5.70;;;4.60;;
20458;SDS011;10388;52.314;7.938;2022-08-03T05:50:40;5.60;;;4.83;;
20458;SDS011;10388;52.314;7.938;2022-08-03T05:53:11;6.53;;;4.57;;
20458;SDS011;10388;52.314;7.938;2022-08-03T05:55:41;8.20;;;4.20;;
20458;SDS011;10388;52.314;7.938;2022-08-03T05:58:12;4.97;;;4.37;;
20458;SDS011;10388;52.314;7.938;2022-08-03T06:00:43;6.67;;;4.43;;
20458;SDS011;10388;52.314;7.938;2022-08-03T06:03:13;6.53;;;4.57;;
20458;SDS011;10388;52.314;7.938;2022-08-03T06:05:44;5.47;;;4.30;;
20458;SDS011;10388;52.314;7.938;2022-08-03T06:08:15;7.47;;;4.60;;
20458;SDS011;10388;52.314;7.938;2022-08-03T06:10:45;6.60;;;4.10;;
20458;SDS011;10388;52.314;7.938;2022-08-03T06:13:16;8.20;;;4.17;;
20458;SDS011;10388;52.314;7.938;2022-08-03T06:15:46;5.30;;;4.27;;
20458;SDS011;10388;52.314;7.938;2022-08-03T06:18:17;8.93;;;4.20;;
20458;SDS011;10388;52.314;7.938;2022-08-03T06:20:47;4.50;;;3.50;;
20458;SDS011;10388;52.314;7.938;2022-08-03T06:23:18;7.10;;;3.93;;
20458;SDS011;10388;52.314;7.938;2022-08-03T06:25:49;10.07;;;4.40;;
20458;SDS011;10388;52.314;7.938;2022-08-03T06:28:20;5.80;;;3.80;;
20458;SDS011;10388;52.314;7.938;2022-08-03T06:30:51;7.40;;;3.60;;
20458;SDS011;10388;52.314;7.938;2022-08-03T06:33:21;8.17;;;3.60;;
20458;SDS011;10388;52.314;7.938;2022-08-03T06:35:54;7.63;;;3.90;;
20458;SDS011;10388;52.314;7.938;2022-08-03T06:38:24;7.90;;;3.93;;
20458;SDS011;10388;52.314;7.938;2022-08-03T06:40:55;4.47;;;3.63;;
20458;SDS011;10388;52.314;7.938;2022-08-03T06:43:26;5.20;;;3.73;;
20458;SDS011;10388;52.314;7.938;2022-08-03T06:45:56;8.47;;;3.60;;
20458;SDS011;10388;52.314;7.938;2022-08-03T06:48:27;4.93;;;3.33;;
20458;SDS011;10388;52.314;7.938;2022-08-03T06:50:57;6.60;;;3.60;;
20458;SDS011;10388;52.314;7.938;2022-08-03T06:53:28;4.10;;;3.27;;
20458;SDS011;10388;52.314;7.938;2022-08-03T06:55:58;5.83;;;3.10;;
20458;SDS011;10388;52.314;7.938;2022-08-03T06:58:29;7.63;;;3.40;;
20458;SDS011;10388;52.314;7.938;2022-08-03T07:01:00;6.97;;;3.03;;
20458;SDS011;10388;52.314;7.938;2022-08-03T07:03:30;8.60;;;3.40;;
20458;SDS011;10388;52.314;7.938;2022-08-03T07:06:01;4.77;;;3.30;;
20458;SDS011;10388;52.314;7.938;2022-08-03T07:08:31;4.53;;;3.17;;
20458;SDS011;10388;52.314;7.938;2022-08-03T07:11:02;6.67;;;2.60;;
20458;SDS011;10388;52.314;7.938;2022-08-03T07:13:32;6.50;;;2.90;;
20458;SDS011;10388;52.314;7.938;2022-08-03T07:16:03;4.90;;;3.27;;
20458;SDS011;10388;52.314;7.938;2022-08-03T07:18:37;5.80;;;2.80;;
20458;SDS011;10388;52.314;7.938;2022-08-03T07:21:08;5.10;;;3.00;;
20458;SDS011;10388;52.314;7.938;2022-08-03T07:23:39;4.90;;;3.27;;
20458;SDS011;10388;52.314;7.938;2022-08-03T07:26:10;4.03;;;2.70;;
20458;SDS011;10388;52.314;7.938;2022-08-03T07:28:41;5.10;;;2.87;;
20458;SDS011;10388;52.314;7.938;2022-08-03T07:31:11;4.30;;;2.57;;
20458;SDS011;10388;52.314;7.938;2022-08-03T07:33:42;3.63;;;2.27;;
20458;SDS011;10388;52.314;7.938;2022-08-03T07:36:12;5.20;;;2.53;;
20458;SDS011;10388;52.314;7.938;2022-08-03T07:38:43;3.47;;;2.33;;
20458;SDS011;10388;52.314;7.938;2022-08-03T07:41:13;5.10;;;2.20;;
20458;SDS011;10388;52.314;7.938;2022-08-03T07:43:44;3.23;;;2.00;;
20458;SDS011;10388;52.314;7.938;2022-08-03T07:46:14;6.27;;;2.30;;
20458;SDS011;10388;52.314;7.938;2022-08-03T07:48:45;4.90;;;2.03;;
20458;SDS011;10388;52.314;7.938;2022-08-03T07:51:16;3.90;;;1.80;;
20458;SDS011;10388;52.314;7.938;2022-08-03T07:53:47;3.53;;;2.00;;
20458;SDS011;10388;52.314;7.938;2022-08-03T07:56:17;3.50;;;1.80;;
20458;SDS011;10388;52.314;7.938;2022-08-03T07:58:48;4.03;;;2.20;;
20458;SDS011;10388;52.314;7.938;2022-08-03T08:01:19;4.53;;;2.10;;
20458;SDS011;10388;52.314;7.938;2022-08-03T08:03:50;4.90;;;2.00;;
20458;SDS011;10388;52.314;7.938;2022-08-03T08:06:21;3.27;;;1.87;;
20458;SDS011;10388;52.314;7.938;2022-08-03T08:08:51;4.70;;;1.83;;
20458;SDS011;10388;52.314;7.938;2022-08-03T08:11:22;2.87;;;1.70;;
20458;SDS011;10388;52.314;7.938;2022-08-03T08:13:53;4.53;;;1.88;;
20458;SDS011;10388;52.314;7.938;2022-08-03T08:16:23;2.60;;;1.87;;
20458;SDS011;10388;52.314;7.938;2022-08-03T08:18:54;4.50;;;1.90;;
20458;SDS011;10388;52.314;7.938;2022-08-03T08:21:24;5.47;;;2.00;;
20458;SDS011;10388;52.314;7.938;2022-08-03T08:23:55;5.17;;;2.40;;
20458;SDS011;10388;52.314;7.938;2022-08-03T08:26:25;6.00;;;2.30;;
20458;SDS011;10388;52.314;7.938;2022-08-03T08:28:56;3.77;;;1.70;;
20458;SDS011;10388;52.314;7.938;2022-08-03T08:31:27;2.47;;;1.50;;
20458;SDS011;10388;52.314;7.938;2022-08-03T08:33:57;3.90;;;1.80;;
20458;SDS011;10388;52.314;7.938;2022-08-03T08:36:28;4.23;;;1.97;;
20458;SDS011;10388;52.314;7.938;2022-08-03T08:38:59;2.23;;;1.50;;
20458;SDS011;10388;52.314;7.938;2022-08-03T08:41:30;4.20;;;1.73;;
20458;SDS011;10388;52.314;7.938;2022-08-03T08:44:03;4.30;;;1.87;;
20458;SDS011;10388;52.314;7.938;2022-08-03T08:46:37;3.53;;;1.57;;
20458;SDS011;10388;52.314;7.938;2022-08-03T08:49:08;4.00;;;1.60;;
20458;SDS011;10388;52.314;7.938;2022-08-03T08:51:39;3.30;;;1.63;;
20458;SDS011;10388;52.314;7.938;2022-08-03T08:54:12;2.77;;;1.60;;
20458;SDS011;10388;52.314;7.938;2022-08-03T08:56:43;3.30;;;1.77;;
20458;SDS011;10388;52.314;7.938;2022-08-03T08:59:14;4.07;;;1.58;;
20458;SDS011;10388;52.314;7.938;2022-08-03T09:01:46;2.77;;;1.70;;
20458;SDS011;10388;52.314;7.938;2022-08-03T09:04:17;2.07;;;1.40;;
20458;SDS011;10388;52.314;7.938;2022-08-03T09:06:47;3.20;;;1.50;;
20458;SDS011;10388;52.314;7.938;2022-08-03T09:09:18;2.83;;;1.30;;
20458;SDS011;10388;52.314;7.938;2022-08-03T09:11:49;3.00;;;1.50;;
20458;SDS011;10388;52.314;7.938;2022-08-03T09:14:19;2.67;;;1.63;;
20458;SDS011;10388;52.314;7.938;2022-08-03T09:17:00;5.53;;;1.60;;
20458;SDS011;10388;52.314;7.938;2022-08-03T09:19:32;4.50;;;1.60;;
20458;SDS011;10388;52.314;7.938;2022-08-03T09:22:07;4.37;;;1.50;;
20458;SDS011;10388;52.314;7.938;2022-08-03T09:24:53;3.60;;;1.80;;
20458;SDS011;10388;52.314;7.938;2022-08-03T09:27:25;3.22;;;1.58;;
20458;SDS011;10388;52.314;7.938;2022-08-03T09:29:56;115.18;;;5.85;;
20458;SDS011;10388;52.314;7.938;2022-08-03T09:32:27;2.60;;;1.47;;
20458;SDS011;10388;52.314;7.938;2022-08-03T09:34:57;3.77;;;1.40;;
20458;SDS011;10388;52.314;7.938;2022-08-03T09:37:33;3.00;;;1.60;;
20458;SDS011;10388;52.314;7.938;2022-08-03T09:40:04;4.83;;;1.53;;
20458;SDS011;10388;52.314;7.938;2022-08-03T09:42:35;1.87;;;1.33;;
20458;SDS011;10388;52.314;7.938;2022-08-03T09:45:08;4.50;;;1.30;;
20458;SDS011;10388;52.314;7.938;2022-08-03T09:47:55;3.10;;;1.70;;
20458;SDS011;10388;52.314;7.938;2022-08-03T09:50:28;4.33;;;1.60;;
20458;SDS011;10388;52.314;7.938;2022-08-03T09:53:00;2.33;;;1.40;;
20458;SDS011;10388;52.314;7.938;2022-08-03T09:55:32;4.50;;;1.67;;
20458;SDS011;10388;52.314;7.938;2022-08-03T09:58:04;3.25;;;1.80;;
20458;SDS011;10388;52.314;7.938;2022-08-03T10:03:26;2.13;;;1.50;;
20458;SDS011;10388;52.314;7.938;2022-08-03T10:05:59;5.60;;;1.80;;
20458;SDS011;10388;52.314;7.938;2022-08-03T10:09:07;5.30;;;2.00;;
20458;SDS011;10388;52.314;7.938;2022-08-03T10:11:42;3.60;;;1.67;;
20458;SDS011;10388;52.314;7.938;2022-08-03T10:14:13;6.28;;;3.10;;
20458;SDS011;10388;52.314;7.938;2022-08-03T10:16:47;5.13;;;1.77;;
20458;SDS011;10388;52.314;7.938;2022-08-03T10:19:19;3.47;;;1.77;;
20458;SDS011;10388;52.314;7.938;2022-08-03T10:21:52;4.43;;;1.85;;
20458;SDS011;10388;52.314;7.938;2022-08-03T10:24:27;3.65;;;2.30;;
20458;SDS011;10388;52.314;7.938;2022-08-03T10:27:03;9.63;;;2.17;;
20458;SDS011;10388;52.314;7.938;2022-08-03T10:29:37;3.72;;;2.50;;
20458;SDS011;10388;52.314;7.938;2022-08-03T10:32:09;4.50;;;1.70;;
20458;SDS011;10388;52.314;7.938;2022-08-03T10:34:45;3.75;;;1.77;;
20458;SDS011;10388;52.314;7.938;2022-08-03T10:37:19;2.35;;;1.80;;
20458;SDS011;10388;52.314;7.938;2022-08-03T10:39:52;5.30;;;1.88;;
20458;SDS011;10388;52.314;7.938;2022-08-03T10:42:23;2.97;;;1.92;;
20458;SDS011;10388;52.314;7.938;2022-08-03T10:45:04;2.95;;;1.30;;
20458;SDS011;10388;52.314;7.938;2022-08-03T10:47:36;4.40;;;2.00;;
20458;SDS011;10388;52.314;7.938;2022-08-03T10:50:09;4.13;;;1.98;;
20458;SDS011;10388;52.314;7.938;2022-08-03T10:55:43;5.05;;;2.25;;
20458;SDS011;10388;52.314;7.938;2022-08-03T11:01:07;2.53;;;1.75;;
20458;SDS011;10388;52.314;7.938;2022-08-03T11:06:23;8.88;;;2.35;;
20458;SDS011;10388;52.314;7.938;2022-08-03T11:11:47;2.15;;;1.40;;
20458;SDS011;10388;52.314;7.938;2022-08-03T11:14:19;4.95;;;2.20;;
20458;SDS011;10388;52.314;7.938;2022-08-03T11:17:05;3.55;;;1.80;;
20458;SDS011;10388;52.314;7.938;2022-08-03T11:19:44;3.13;;;1.50;;
20458;SDS011;10388;52.314;7.938;2022-08-03T11:22:16;2.85;;;1.80;;
20458;SDS011;10388;52.314;7.938;2022-08-03T11:35:18;4.40;;;2.17;;
20458;SDS011;10388;52.314;7.938;2022-08-03T11:38:05;5.22;;;2.45;;
20458;SDS011;10388;52.314;7.938;2022-08-03T11:46:07;4.57;;;1.58;;
20458;SDS011;10388;52.314;7.938;2022-08-03T11:48:50;4.68;;;1.50;;
20458;SDS011;10388;52.314;7.938;2022-08-03T11:51:27;3.97;;;1.60;;
20458;SDS011;10388;52.314;7.938;2022-08-03T11:54:01;5.20;;;2.28;;
20458;SDS011;10388;52.314;7.938;2022-08-03T11:56:47;3.28;;;2.00;;
20458;SDS011;10388;52.314;7.938;2022-08-03T11:59:30;5.95;;;1.95;;
20458;SDS011;10388;52.314;7.938;2022-08-03T12:02:08;7.38;;;2.28;;
20458;SDS011;10388;52.314;7.938;2022-08-03T12:04:53;3.50;;;2.20;;
20458;SDS011;10388;52.314;7.938;2022-08-03T12:07:29;4.40;;;2.25;;
20458;SDS011;10388;52.314;7.938;2022-08-03T12:10:06;3.22;;;1.90;;
20458;SDS011;10388;52.314;7.938;2022-08-03T12:12:41;5.43;;;2.30;;
20458;SDS011;10388;52.314;7.938;2022-08-03T12:15:11;4.57;;;2.20;;
20458;SDS011;10388;52.314;7.938;2022-08-03T12:17:42;4.30;;;2.47;;
20458;SDS011;10388;52.314;7.938;2022-08-03T12:20:19;4.68;;;1.83;;
20458;SDS011;10388;52.314;7.938;2022-08-03T12:23:00;4.38;;;2.10;;
20458;SDS011;10388;52.314;7.938;2022-08-03T12:25:35;4.90;;;1.90;;
20458;SDS011;10388;52.314;7.938;2022-08-03T12:28:12;9.88;;;2.95;;
20458;SDS011;10388;52.314;7.938;2022-08-03T12:30:49;2.47;;;1.63;;
20458;SDS011;10388;52.314;7.938;2022-08-03T12:33:21;4.63;;;1.95;;
20458;SDS011;10388;52.314;7.938;2022-08-03T12:36:04;8.00;;;2.00;;
20458;SDS011;10388;52.314;7.938;2022-08-03T12:38:39;4.45;;;2.17;;
20458;SDS011;10388;52.314;7.938;2022-08-03T12:41:10;2.30;;;1.80;;
20458;SDS011;10388;52.314;7.938;2022-08-03T12:43:48;4.93;;;2.30;;
20458;SDS011;10388;52.314;7.938;2022-08-03T12:46:20;3.10;;;1.70;;
20458;SDS011;10388;52.314;7.938;2022-08-03T12:48:57;4.90;;;2.17;;
20458;SDS011;10388;52.314;7.938;2022-08-03T12:51:34;3.13;;;1.60;;
20458;SDS011;10388;52.314;7.938;2022-08-03T12:54:28;3.55;;;1.70;;
20458;SDS011;10388;52.314;7.938;2022-08-03T12:57:05;6.43;;;2.00;;
20458;SDS011;10388;52.314;7.938;2022-08-03T12:59:42;2.25;;;1.63;;
20458;SDS011;10388;52.314;7.938;2022-08-03T13:02:18;3.80;;;1.85;;
20458;SDS011;10388;52.314;7.938;2022-08-03T13:04:53;5.25;;;2.30;;
20458;SDS011;10388;52.314;7.938;2022-08-03T13:07:24;4.68;;;1.88;;
20458;SDS011;10388;52.314;7.938;2022-08-03T13:09:54;2.75;;;1.63;;
20458;SDS011;10388;52.314;7.938;2022-08-03T13:12:26;4.75;;;2.08;;
20458;SDS011;10388;52.314;7.938;2022-08-03T13:14:58;6.28;;;2.03;;
20458;SDS011;10388;52.314;7.938;2022-08-03T13:17:29;5.85;;;1.90;;
20458;SDS011;10388;52.314;7.938;2022-08-03T13:19:59;4.00;;;1.90;;
20458;SDS011;10388;52.314;7.938;2022-08-03T13:22:30;6.25;;;1.88;;
20458;SDS011;10388;52.314;7.938;2022-08-03T13:25:04;5.40;;;2.35;;
20458;SDS011;10388;52.314;7.938;2022-08-03T13:27:34;4.18;;;2.13;;
20458;SDS011;10388;52.314;7.938;2022-08-03T13:30:06;6.20;;;2.22;;
20458;SDS011;10388;52.314;7.938;2022-08-03T13:32:37;6.25;;;1.80;;
20458;SDS011;10388;52.314;7.938;2022-08-03T13:35:08;4.22;;;1.90;;
20458;SDS011;10388;52.314;7.938;2022-08-03T13:37:39;4.20;;;1.92;;
20458;SDS011;10388;52.314;7.938;2022-08-03T13:40:10;3.28;;;1.80;;
20458;SDS011;10388;52.314;7.938;2022-08-03T13:42:40;6.13;;;2.17;;
20458;SDS011;10388;52.314;7.938;2022-08-03T13:45:11;6.03;;;1.95;;
20458;SDS011;10388;52.314;7.938;2022-08-03T13:47:42;6.22;;;2.33;;
20458;SDS011;10388;52.314;7.938;2022-08-03T13:50:12;6.00;;;2.08;;
20458;SDS011;10388;52.314;7.938;2022-08-03T13:52:44;4.78;;;2.45;;
20458;SDS011;10388;52.314;7.938;2022-08-03T13:55:17;5.60;;;1.60;;
20458;SDS011;10388;52.314;7.938;2022-08-03T13:57:48;3.67;;;1.73;;
20458;SDS011;10388;52.314;7.938;2022-08-03T14:00:18;6.72;;;1.98;;
20458;SDS011;10388;52.314;7.938;2022-08-03T14:02:53;7.97;;;1.88;;
20458;SDS011;10388;52.314;7.938;2022-08-03T14:05:23;3.67;;;2.17;;
20458;SDS011;10388;52.314;7.938;2022-08-03T14:07:54;5.25;;;1.77;;
20458;SDS011;10388;52.314;7.938;2022-08-03T14:10:24;4.82;;;2.05;;
20458;SDS011;10388;52.314;7.938;2022-08-03T14:12:55;6.28;;;2.35;;
20458;SDS011;10388;52.314;7.938;2022-08-03T14:15:29;3.15;;;1.50;;
20458;SDS011;10388;52.314;7.938;2022-08-03T14:18:00;5.57;;;2.45;;
20458;SDS011;10388;52.314;7.938;2022-08-03T14:20:30;6.45;;;1.85;;
20458;SDS011;10388;52.314;7.938;2022-08-03T14:23:01;5.40;;;2.05;;
20458;SDS011;10388;52.314;7.938;2022-08-03T14:25:31;3.55;;;1.90;;
20458;SDS011;10388;52.314;7.938;2022-08-03T14:28:02;4.82;;;2.15;;
20458;SDS011;10388;52.314;7.938;2022-08-03T14:30:33;3.40;;;1.73;;
20458;SDS011;10388;52.314;7.938;2022-08-03T14:33:03;4.53;;;1.85;;
20458;SDS011;10388;52.314;7.938;2022-08-03T14:35:34;5.78;;;2.55;;
20458;SDS011;10388;52.314;7.938;2022-08-03T14:38:05;9.13;;;1.92;;
20458;SDS011;10388;52.314;7.938;2022-08-03T14:40:35;5.38;;;2.33;;
20458;SDS011;10388;52.314;7.938;2022-08-03T14:43:06;7.07;;;2.17;;
20458;SDS011;10388;52.314;7.938;2022-08-03T14:45:37;3.97;;;1.88;;
20458;SDS011;10388;52.314;7.938;2022-08-03T14:48:10;4.10;;;1.80;;
20458;SDS011;10388;52.314;7.938;2022-08-03T14:50:41;4.68;;;2.05;;
20458;SDS011;10388;52.314;7.938;2022-08-03T14:53:12;5.47;;;2.22;;
20458;SDS011;10388;52.314;7.938;2022-08-03T14:55:43;6.72;;;1.83;;
20458;SDS011;10388;52.314;7.938;2022-08-03T14:58:15;5.25;;;1.95;;
20458;SDS011;10388;52.314;7.938;2022-08-03T15:00:46;6.88;;;1.83;;
20458;SDS011;10388;52.314;7.938;2022-08-03T15:03:17;2.33;;;1.65;;
20458;SDS011;10388;52.314;7.938;2022-08-03T15:05:56;9.27;;;2.10;;
20458;SDS011;10388;52.314;7.938;2022-08-03T15:08:27;4.68;;;1.92;;
20458;SDS011;10388;52.314;7.938;2022-08-03T15:10:57;5.30;;;2.03;;
20458;SDS011;10388;52.314;7.938;2022-08-03T15:13:28;4.65;;;2.00;;
20458;SDS011;10388;52.314;7.938;2022-08-03T15:15:58;4.68;;;1.88;;
20458;SDS011;10388;52.314;7.938;2022-08-03T15:18:29;6.43;;;2.10;;
20458;SDS011;10388;52.314;7.938;2022-08-03T15:20:59;7.68;;;2.65;;
20458;SDS011;10388;52.314;7.938;2022-08-03T15:23:31;4.55;;;2.15;;
20458;SDS011;10388;52.314;7.938;2022-08-03T15:26:01;7.00;;;2.20;;
20458;SDS011;10388;52.314;7.938;2022-08-03T15:28:32;7.85;;;2.40;;
20458;SDS011;10388;52.314;7.938;2022-08-03T15:31:03;6.85;;;2.13;;
20458;SDS011;10388;52.314;7.938;2022-08-03T15:33:35;6.78;;;2.30;;
20458;SDS011;10388;52.314;7.938;2022-08-03T15:36:06;10.88;;;2.13;;
20458;SDS011;10388;52.314;7.938;2022-08-03T15:38:36;8.40;;;2.83;;
20458;SDS011;10388;52.314;7.938;2022-08-03T15:41:07;6.78;;;2.33;;
20458;SDS011;10388;52.314;7.938;2022-08-03T15:43:37;5.95;;;2.22;;
20458;SDS011;10388;52.314;7.938;2022-08-03T15:46:08;6.28;;;2.10;;
20458;SDS011;10388;52.314;7.938;2022-08-03T15:48:39;5.18;;;1.88;;
20458;SDS011;10388;52.314;7.938;2022-08-03T15:51:10;5.85;;;1.90;;
20458;SDS011;10388;52.314;7.938;2022-08-03T15:53:41;6.00;;;2.75;;
20458;SDS011;10388;52.314;7.938;2022-08-03T15:56:11;5.60;;;1.90;;
20458;SDS011;10388;52.314;7.938;2022-08-03T15:58:42;5.47;;;2.08;;
20458;SDS011;10388;52.314;7.938;2022-08-03T16:01:12;9.02;;;2.30;;
20458;SDS011;10388;52.314;7.938;2022-08-03T16:03:43;10.23;;;2.72;;
20458;SDS011;10388;52.314;7.938;2022-08-03T16:06:14;11.15;;;2.22;;
20458;SDS011;10388;52.314;7.938;2022-08-03T16:08:45;8.00;;;2.10;;
20458;SDS011;10388;52.314;7.938;2022-08-03T16:11:16;9.98;;;2.47;;
20458;SDS011;10388;52.314;7.938;2022-08-03T16:13:46;4.30;;;1.60;;
20458;SDS011;10388;52.314;7.938;2022-08-03T16:16:17;6.65;;;1.70;;
20458;SDS011;10388;52.314;7.938;2022-08-03T16:18:47;7.72;;;1.88;;
20458;SDS011;10388;52.314;7.938;2022-08-03T16:21:18;6.03;;;2.10;;
20458;SDS011;10388;52.314;7.938;2022-08-03T16:23:49;5.95;;;1.73;;
20458;SDS011;10388;52.314;7.938;2022-08-03T16:26:19;5.03;;;1.77;;
20458;SDS011;10388;52.314;7.938;2022-08-03T16:28:50;3.33;;;1.42;;
20458;SDS011;10388;52.314;7.938;2022-08-03T16:31:20;4.90;;;1.60;;
20458;SDS011;10388;52.314;7.938;2022-08-03T16:33:52;5.65;;;1.75;;
20458;SDS011;10388;52.314;7.938;2022-08-03T16:36:23;5.10;;;2.55;;
20458;SDS011;10388;52.314;7.938;2022-08-03T16:38:53;4.72;;;1.63;;
20458;SDS011;10388;52.314;7.938;2022-08-03T16:41:24;7.63;;;2.17;;
20458;SDS011;10388;52.314;7.938;2022-08-03T16:43:54;7.78;;;2.55;;
20458;SDS011;10388;52.314;7.938;2022-08-03T16:46:25;5.75;;;1.80;;
20458;SDS011;10388;52.314;7.938;2022-08-03T16:48:55;7.13;;;2.10;;
20458;SDS011;10388;52.314;7.938;2022-08-03T16:51:26;10.20;;;2.58;;
20458;SDS011;10388;52.314;7.938;2022-08-03T16:53:57;5.38;;;1.70;;
20458;SDS011;10388;52.314;7.938;2022-08-03T16:56:27;6.25;;;1.83;;
20458;SDS011;10388;52.314;7.938;2022-08-03T16:58:58;6.20;;;1.60;;
20458;SDS011;10388;52.314;7.938;2022-08-03T17:01:29;7.45;;;2.58;;
20458;SDS011;10388;52.314;7.938;2022-08-03T17:04:00;6.27;;;1.77;;
20458;SDS011;10388;52.314;7.938;2022-08-03T17:06:33;7.93;;;2.50;;
20458;SDS011;10388;52.314;7.938;2022-08-03T17:09:06;6.97;;;2.77;;
20458;SDS011;10388;52.314;7.938;2022-08-03T17:11:40;9.48;;;2.15;;
20458;SDS011;10388;52.314;7.938;2022-08-03T17:14:13;5.50;;;1.93;;
20458;SDS011;10388;52.314;7.938;2022-08-03T17:16:51;4.93;;;1.60;;
20458;SDS011;10388;52.314;7.938;2022-08-03T17:19:28;6.80;;;2.00;;
20458;SDS011;10388;52.314;7.938;2022-08-03T17:22:08;6.97;;;1.73;;
20458;SDS011;10388;52.314;7.938;2022-08-03T17:24:44;5.15;;;1.73;;
20458;SDS011;10388;52.314;7.938;2022-08-03T17:27:27;5.33;;;1.97;;
20458;SDS011;10388;52.314;7.938;2022-08-03T17:30:01;10.13;;;2.57;;
20458;SDS011;10388;52.314;7.938;2022-08-03T17:32:33;4.67;;;1.67;;
20458;SDS011;10388;52.314;7.938;2022-08-03T17:35:06;5.73;;;1.93;;
20458;SDS011;10388;52.314;7.938;2022-08-03T17:37:37;6.20;;;1.93;;
20458;SDS011;10388;52.314;7.938;2022-08-03T17:40:10;6.67;;;1.87;;
20458;SDS011;10388;52.314;7.938;2022-08-03T17:42:41;7.63;;;2.42;;
20458;SDS011;10388;52.314;7.938;2022-08-03T17:45:12;3.90;;;1.53;;
20458;SDS011;10388;52.314;7.938;2022-08-03T17:47:45;6.27;;;2.37;;
20458;SDS011;10388;52.314;7.938;2022-08-03T17:50:15;6.43;;;1.83;;
20458;SDS011;10388;52.314;7.938;2022-08-03T17:52:46;6.43;;;2.90;;
20458;SDS011;10388;52.314;7.938;2022-08-03T17:55:22;8.83;;;1.77;;
20458;SDS011;10388;52.314;7.938;2022-08-03T17:57:58;6.77;;;1.90;;
20458;SDS011;10388;52.314;7.938;2022-08-03T18:00:37;11.43;;;2.43;;
20458;SDS011;10388;52.314;7.938;2022-08-03T18:04:04;4.83;;;1.80;;
20458;SDS011;10388;52.314;7.938;2022-08-03T18:06:31;2.70;;;1.50;;
20458;SDS011;10388;52.314;7.938;2022-08-03T18:09:07;5.33;;;2.27;;
20458;SDS011;10388;52.314;7.938;2022-08-03T18:11:39;5.20;;;2.43;;
20458;SDS011;10388;52.314;7.938;2022-08-03T18:14:14;6.73;;;1.97;;
20458;SDS011;10388;52.314;7.938;2022-08-03T18:16:56;4.43;;;1.67;;
20458;SDS011;10388;52.314;7.938;2022-08-03T18:19:35;6.30;;;2.17;;
20458;SDS011;10388;52.314;7.938;2022-08-03T18:22:06;5.13;;;1.70;;
20458;SDS011;10388;52.314;7.938;2022-08-03T18:24:37;6.00;;;1.97;;
20458;SDS011;10388;52.314;7.938;2022-08-03T18:27:10;5.63;;;2.03;;
20458;SDS011;10388;52.314;7.938;2022-08-03T18:29:44;8.37;;;2.43;;
20458;SDS011;10388;52.314;7.938;2022-08-03T18:32:15;4.80;;;1.47;;
20458;SDS011;10388;52.314;7.938;2022-08-03T18:34:46;5.03;;;1.93;;
20458;SDS011;10388;52.314;7.938;2022-08-03T18:37:18;4.43;;;1.50;;
20458;SDS011;10388;52.314;7.938;2022-08-03T18:39:56;7.37;;;1.90;;
20458;SDS011;10388;52.314;7.938;2022-08-03T18:42:26;4.20;;;1.40;;
20458;SDS011;10388;52.314;7.938;2022-08-03T18:44:57;5.03;;;1.73;;
20458;SDS011;10388;52.314;7.938;2022-08-03T18:47:30;6.57;;;1.93;;
20458;SDS011;10388;52.314;7.938;2022-08-03T18:55:56;4.47;;;1.60;;
20458;SDS011;10388;52.314;7.938;2022-08-03T19:02:12;6.63;;;1.70;;
20458;SDS011;10388;52.314;7.938;2022-08-03T19:07:08;5.67;;;1.93;;
20458;SDS011;10388;52.314;7.938;2022-08-03T19:09:53;5.90;;;1.80;;
20458;SDS011;10388;52.314;7.938;2022-08-03T19:15:04;13.00;;;2.27;;
20458;SDS011;10388;52.314;7.938;2022-08-03T19:17:41;8.07;;;2.17;;
20458;SDS011;10388;52.314;7.938;2022-08-03T19:20:19;5.10;;;1.70;;
20458;SDS011;10388;52.314;7.938;2022-08-03T19:22:52;7.57;;;2.00;;
20458;SDS011;10388;52.314;7.938;2022-08-03T19:25:24;3.03;;;1.73;;
20458;SDS011;10388;52.314;7.938;2022-08-03T19:27:56;7.70;;;2.10;;
20458;SDS011;10388;52.314;7.938;2022-08-03T19:30:35;7.00;;;2.10;;
20458;SDS011;10388;52.314;7.938;2022-08-03T19:33:08;11.20;;;2.53;;
20458;SDS011;10388;52.314;7.938;2022-08-03T19:35:41;6.97;;;2.20;;